PWSweather.com
Personal Weather Stations
Station Observations
WAREHAM1
West Wareham, MA 02576

West Wareham, MA 02576

Lat: 41.7961059, Lon: -70.775612

Elevation: 88

Station Type: Davis Vantage Vue

http://www.gateway2capecod.com

High Low Average
Temperature 43.0°F6.1°F 27.9°F-2.3°F 35.2°F1.8°F
Dew Point 41.9°F5.5°F 24.1°F-4.4°F 32.8°F0.4°F
Winds 2.0 mph WNW3.2 mph WNW Calm Calm 0.2 mph 0.3 mph
Wind Gusts 9.0 mph14.5 mph -- 1.6 mph2.6 mph
Humidity 96% 82% 91%
Pressure 30.18 in1022.00 in 29.92 in1013.20 in -
Precipitation 1.32 in33.50 in - -
Hour Temp Dew Point Humidity Winds Wind Gusts Pressure Precip Precip Rate Daily Precip Total
12:00 AM 27.9°F-2.3°C 24.3°F-4.3°C 86% Calm Calm -- 30.18 in1022.0 mb 0.00 in0.0 mm 0.00 in0.0 mm 0.00 in0.0 mm
12:10 AM 28.0°F-2.2°C 24.1°F-4.4°C 85% Calm Calm -- 30.17 in1021.7 mb 0.00 in0.0 mm 0.00 in0.0 mm 0.00 in0.0 mm
12:20 AM 28.2°F-2.1°C 24.3°F-4.3°C 85% Calm Calm -- 30.17 in1021.7 mb 0.00 in0.0 mm 0.00 in0.0 mm 0.00 in0.0 mm
12:30 AM 28.6°F-1.9°C 24.6°F-4.1°C 85% Calm Calm -- 30.17 in1021.7 mb 0.00 in0.0 mm 0.00 in0.0 mm 0.00 in0.0 mm
12:40 AM 28.9°F-1.7°C 24.8°F-4.0°C 84% Calm Calm 0.9 mph1.4 kmh 30.16 in1021.3 mb 0.00 in0.0 mm 0.00 in0.0 mm 0.00 in0.0 mm
12:50 AM 29.1°F-1.6°C 24.6°F-4.1°C 83% Calm Calm -- 30.16 in1021.3 mb 0.00 in0.0 mm 0.00 in0.0 mm 0.00 in0.0 mm
01:00 AM 29.1°F-1.6°C 24.6°F-4.1°C 83% Calm Calm -- 30.16 in1021.3 mb 0.00 in0.0 mm 0.00 in0.0 mm 0.00 in0.0 mm
01:10 AM 29.5°F-1.4°C 25.0°F-3.9°C 83% Calm Calm -- 30.16 in1021.3 mb 0.00 in0.0 mm 0.00 in0.0 mm 0.00 in0.0 mm
01:20 AM 29.7°F-1.3°C 24.8°F-4.0°C 82% Calm Calm -- 30.16 in1021.3 mb 0.00 in0.0 mm 0.00 in0.0 mm 0.00 in0.0 mm
01:30 AM 29.7°F-1.3°C 24.8°F-4.0°C 82% Calm Calm -- 30.15 in1021.0 mb 0.00 in0.0 mm 0.00 in0.0 mm 0.00 in0.0 mm
01:40 AM 29.7°F-1.3°C 24.8°F-4.0°C 82% Calm Calm -- 30.16 in1021.3 mb 0.00 in0.0 mm 0.00 in0.0 mm 0.00 in0.0 mm
01:50 AM 29.7°F-1.3°C 24.8°F-4.0°C 82% Calm Calm -- 30.16 in1021.3 mb 0.00 in0.0 mm 0.00 in0.0 mm 0.00 in0.0 mm
02:00 AM 29.8°F-1.2°C 25.0°F-3.9°C 82% Calm Calm -- 30.16 in1021.3 mb 0.00 in0.0 mm 0.00 in0.0 mm 0.00 in0.0 mm
02:10 AM 29.8°F-1.2°C 25.0°F-3.9°C 82% Calm Calm -- 30.16 in1021.3 mb 0.00 in0.0 mm 0.00 in0.0 mm 0.00 in0.0 mm
02:20 AM 29.7°F-1.3°C 24.8°F-4.0°C 82% Calm Calm -- 30.15 in1021.0 mb 0.00 in0.0 mm 0.00 in0.0 mm 0.00 in0.0 mm
02:30 AM 29.7°F-1.3°C 25.2°F-3.8°C 83% Calm Calm -- 30.14 in1020.7 mb 0.00 in0.0 mm 0.00 in0.0 mm 0.00 in0.0 mm
02:40 AM 29.7°F-1.3°C 25.2°F-3.8°C 83% Calm Calm -- 30.14 in1020.7 mb 0.00 in0.0 mm 0.00 in0.0 mm 0.00 in0.0 mm
02:50 AM 29.5°F-1.4°C 25.0°F-3.9°C 83% Calm Calm -- 30.14 in1020.7 mb 0.00 in0.0 mm 0.00 in0.0 mm 0.00 in0.0 mm
03:00 AM 29.5°F-1.4°C 25.2°F-3.8°C 84% Calm Calm -- 30.14 in1020.7 mb 0.00 in0.0 mm 0.00 in0.0 mm 0.00 in0.0 mm
03:10 AM 29.5°F-1.4°C 25.2°F-3.8°C 84% Calm Calm -- 30.14 in1020.7 mb 0.00 in0.0 mm 0.00 in0.0 mm 0.00 in0.0 mm
03:20 AM 29.5°F-1.4°C 25.2°F-3.8°C 84% Calm Calm -- 30.14 in1020.7 mb 0.00 in0.0 mm 0.00 in0.0 mm 0.00 in0.0 mm
03:30 AM 29.5°F-1.4°C 25.2°F-3.8°C 84% Calm Calm 0.9 mph1.4 kmh 30.12 in1020.0 mb 0.00 in0.0 mm 0.00 in0.0 mm 0.00 in0.0 mm
03:40 AM 29.7°F-1.3°C 25.3°F-3.7°C 84% Calm Calm -- 30.11 in1019.6 mb 0.00 in0.0 mm 0.00 in0.0 mm 0.00 in0.0 mm
03:50 AM 29.8°F-1.2°C 25.9°F-3.4°C 85% Calm Calm 1.0 mph1.6 kmh 30.12 in1020.0 mb 0.00 in0.0 mm 0.00 in0.0 mm 0.00 in0.0 mm
04:00 AM 30.0°F-1.1°C 26.1°F-3.3°C 85% Calm Calm 0.9 mph1.4 kmh 30.14 in1020.7 mb 0.00 in0.0 mm 0.00 in0.0 mm 0.00 in0.0 mm
04:10 AM 30.4°F-0.9°C 26.1°F-3.3°C 84% Calm Calm -- 30.14 in1020.7 mb 0.00 in0.0 mm 0.00 in0.0 mm 0.00 in0.0 mm
04:20 AM 30.4°F-0.9°C 26.1°F-3.3°C 84% Calm Calm -- 30.15 in1021.0 mb 0.00 in0.0 mm 0.00 in0.0 mm 0.00 in0.0 mm
04:30 AM 30.4°F-0.9°C 26.1°F-3.3°C 84% Calm Calm -- 30.14 in1020.7 mb 0.00 in0.0 mm 0.00 in0.0 mm 0.00 in0.0 mm
04:41 AM 30.6°F-0.8°C 26.2°F-3.2°C 84% Calm Calm -- 30.14 in1020.7 mb 0.00 in0.0 mm 0.00 in0.0 mm 0.00 in0.0 mm
04:51 AM 30.6°F-0.8°C 26.2°F-3.2°C 84% Calm Calm -- 30.15 in1021.0 mb 0.00 in0.0 mm 0.00 in0.0 mm 0.00 in0.0 mm
05:01 AM 30.6°F-0.8°C 26.2°F-3.2°C 84% Calm Calm 1.0 mph1.6 kmh 30.14 in1020.7 mb 0.00 in0.0 mm 0.00 in0.0 mm 0.00 in0.0 mm
05:11 AM 30.7°F-0.7°C 26.4°F-3.1°C 84% Calm Calm -- 30.13 in1020.3 mb 0.00 in0.0 mm 0.00 in0.0 mm 0.00 in0.0 mm
05:21 AM 30.7°F-0.7°C 26.8°F-2.9°C 85% Calm Calm -- 30.11 in1019.6 mb 0.00 in0.0 mm 0.00 in0.0 mm 0.00 in0.0 mm
05:31 AM 30.7°F-0.7°C 26.8°F-2.9°C 85% Calm Calm -- 30.11 in1019.6 mb 0.00 in0.0 mm 0.00 in0.0 mm 0.00 in0.0 mm
05:41 AM 30.9°F-0.6°C 26.6°F-3.0°C 84% Calm Calm -- 30.11 in1019.6 mb 0.00 in0.0 mm 0.00 in0.0 mm 0.00 in0.0 mm
05:51 AM 30.9°F-0.6°C 26.6°F-3.0°C 84% Calm Calm -- 30.11 in1019.6 mb 0.00 in0.0 mm 0.00 in0.0 mm 0.00 in0.0 mm
06:01 AM 31.1°F-0.5°C 27.1°F-2.7°C 85% Calm Calm -- 30.10 in1019.3 mb 0.00 in0.0 mm 0.00 in0.0 mm 0.00 in0.0 mm
06:11 AM 31.5°F-0.3°C 27.5°F-2.5°C 85% Calm Calm 1.0 mph1.6 kmh 30.09 in1019.0 mb 0.00 in0.0 mm 0.00 in0.0 mm 0.00 in0.0 mm
06:21 AM 31.6°F-0.2°C 27.3°F-2.6°C 84% Calm Calm 0.9 mph1.4 kmh 30.09 in1019.0 mb 0.00 in0.0 mm 0.00 in0.0 mm 0.00 in0.0 mm
06:31 AM 31.6°F-0.2°C 27.3°F-2.6°C 84% Calm Calm -- 30.09 in1019.0 mb 0.00 in0.0 mm 0.00 in0.0 mm 0.00 in0.0 mm
06:41 AM 31.8°F-0.1°C 27.9°F-2.3°C 85% Calm Calm 0.9 mph1.4 kmh 30.09 in1019.0 mb 0.00 in0.0 mm 0.00 in0.0 mm 0.00 in0.0 mm
06:51 AM 32.4°F0.2°C 28.9°F-1.7°C 87% Calm Calm -- 30.08 in1018.6 mb 0.00 in0.0 mm 0.00 in0.0 mm 0.00 in0.0 mm
07:01 AM 33.1°F0.6°C 29.7°F-1.3°C 87% Calm Calm -- 30.07 in1018.3 mb 0.00 in0.0 mm 0.00 in0.0 mm 0.00 in0.0 mm
07:11 AM 33.4°F0.8°C 30.6°F-0.8°C 89% Calm Calm 1.0 mph1.6 kmh 30.07 in1018.3 mb 0.00 in0.0 mm 0.00 in0.0 mm 0.00 in0.0 mm
07:21 AM 33.4°F0.8°C 30.6°F-0.8°C 89% Calm Calm -- 30.08 in1018.6 mb 0.00 in0.0 mm 0.00 in0.0 mm 0.00 in0.0 mm
07:31 AM 33.6°F0.9°C 30.9°F-0.6°C 90% Calm Calm -- 30.08 in1018.6 mb 0.00 in0.0 mm 0.00 in0.0 mm 0.00 in0.0 mm
07:41 AM 33.8°F1.0°C 31.5°F-0.3°C 91% Calm Calm -- 30.08 in1018.6 mb 0.00 in0.0 mm 0.00 in0.0 mm 0.00 in0.0 mm
07:51 AM 34.0°F1.1°C 31.6°F-0.2°C 91% Calm Calm -- 30.08 in1018.6 mb 0.00 in0.0 mm 0.00 in0.0 mm 0.00 in0.0 mm
08:01 AM 34.2°F1.2°C 32.0°F0.0°C 92% Calm Calm 0.9 mph1.4 kmh 30.08 in1018.6 mb 0.00 in0.0 mm 0.00 in0.0 mm 0.00 in0.0 mm
08:11 AM 34.3°F1.3°C 32.2°F0.1°C 92% Calm Calm 0.9 mph1.4 kmh 30.07 in1018.3 mb 0.00 in0.0 mm 0.00 in0.0 mm 0.00 in0.0 mm
08:21 AM 34.5°F1.4°C 32.7°F0.4°C 93% Calm Calm 1.0 mph1.6 kmh 30.07 in1018.3 mb 0.01 in0.3 mm 0.06 in1.5 mm 0.01 in0.3 mm
08:31 AM 34.7°F1.5°C 32.9°F0.5°C 93% Calm Calm 0.9 mph1.4 kmh 30.06 in1017.9 mb 0.02 in0.5 mm 0.06 in1.5 mm 0.02 in0.5 mm
08:41 AM 34.9°F1.6°C 33.1°F0.6°C 93% Calm Calm 0.9 mph1.4 kmh 30.06 in1017.9 mb 0.02 in0.5 mm 0.00 in0.0 mm 0.02 in0.5 mm
08:51 AM 35.1°F1.7°C 33.4°F0.8°C 94% Calm Calm 0.9 mph1.4 kmh 30.06 in1017.9 mb 0.02 in0.5 mm 0.00 in0.0 mm 0.02 in0.5 mm
09:01 AM 35.2°F1.8°C 33.6°F0.9°C 94% Calm Calm 0.9 mph1.4 kmh 30.06 in1017.9 mb 0.03 in0.8 mm 0.01 in0.3 mm 0.03 in0.8 mm
09:11 AM 35.4°F1.9°C 33.8°F1.0°C 94% Calm Calm -- 30.06 in1017.9 mb 0.03 in0.8 mm 0.00 in0.0 mm 0.03 in0.8 mm
09:21 AM 35.8°F2.1°C 34.2°F1.2°C 94% Calm Calm 2.0 mph3.2 kmh 30.05 in1017.6 mb 0.02 in0.5 mm 0.00 in0.0 mm 0.03 in0.8 mm
09:31 AM 36.1°F2.3°C 34.5°F1.4°C 94% Calm Calm 0.9 mph1.4 kmh 30.05 in1017.6 mb 0.01 in0.3 mm 0.00 in0.0 mm 0.03 in0.8 mm
09:41 AM 36.3°F2.4°C 34.7°F1.5°C 94% Calm Calm 0.9 mph1.4 kmh 30.05 in1017.6 mb 0.02 in0.5 mm 0.06 in1.5 mm 0.04 in1.0 mm
09:51 AM 36.7°F2.6°C 35.1°F1.7°C 94% Calm Calm 2.0 mph3.2 kmh 30.04 in1017.3 mb 0.02 in0.5 mm 0.00 in0.0 mm 0.04 in1.0 mm
10:01 AM 37.0°F2.8°C 35.8°F2.1°C 95% Calm Calm 0.9 mph1.4 kmh 30.04 in1017.3 mb 0.01 in0.3 mm 0.00 in0.0 mm 0.04 in1.0 mm
10:11 AM 37.2°F2.9°C 36.0°F2.2°C 95% Calm Calm 2.9 mph4.7 kmh 30.03 in1016.9 mb 0.02 in0.5 mm 0.06 in1.5 mm 0.05 in1.3 mm
10:21 AM 37.6°F3.1°C 36.3°F2.4°C 95% Calm Calm 2.9 mph4.7 kmh 30.03 in1016.9 mb 0.02 in0.5 mm 0.00 in0.0 mm 0.05 in1.3 mm
10:31 AM 37.9°F3.3°C 36.7°F2.6°C 95% Calm Calm 2.0 mph3.2 kmh 30.02 in1016.6 mb 0.02 in0.5 mm 0.00 in0.0 mm 0.05 in1.3 mm
10:41 AM 38.3°F3.5°C 37.0°F2.8°C 95% Calm Calm 2.0 mph3.2 kmh 30.02 in1016.6 mb 0.02 in0.5 mm 0.00 in0.0 mm 0.06 in1.5 mm
10:51 AM 38.5°F3.6°C 37.2°F2.9°C 95% Calm Calm 0.9 mph1.4 kmh 30.01 in1016.3 mb 0.03 in0.8 mm 0.06 in1.5 mm 0.07 in1.8 mm
11:01 AM 38.7°F3.7°C 37.4°F3.0°C 95% Calm Calm 0.9 mph1.4 kmh 30.00 in1015.9 mb 0.04 in1.0 mm 0.01 in0.3 mm 0.08 in2.0 mm
11:11 AM 39.2°F4.0°C 37.9°F3.3°C 95% Calm Calm 2.9 mph4.7 kmh 29.99 in1015.6 mb 0.03 in0.8 mm 0.00 in0.0 mm 0.08 in2.0 mm
11:21 AM 39.7°F4.3°C 38.7°F3.7°C 96% Calm Calm 2.9 mph4.7 kmh 29.98 in1015.2 mb 0.04 in1.0 mm 0.06 in1.5 mm 0.09 in2.3 mm
11:31 AM 40.1°F4.5°C 38.8°F3.8°C 95% 0.9 mph ESE1.4 kmh ESE 2.9 mph4.7 kmh 29.97 in1014.9 mb 0.04 in1.0 mm 0.00 in0.0 mm 0.09 in2.3 mm
11:41 AM 40.3°F4.6°C 39.0°F3.9°C 95% Calm Calm 3.0 mph4.8 kmh 29.97 in1014.9 mb 0.04 in1.0 mm 0.00 in0.0 mm 0.10 in2.5 mm
11:51 AM 40.5°F4.7°C 39.2°F4.0°C 95% 0.9 mph ESE1.4 kmh ESE 4.0 mph6.4 kmh 29.96 in1014.6 mb 0.04 in1.0 mm 0.00 in0.0 mm 0.11 in2.8 mm
12:01 PM 40.5°F4.7°C 39.2°F4.0°C 95% Calm Calm 4.0 mph6.4 kmh 29.95 in1014.2 mb 0.03 in0.8 mm 0.00 in0.0 mm 0.11 in2.8 mm
12:11 PM 40.6°F4.8°C 39.4°F4.1°C 95% 0.9 mph SE1.4 kmh SE 2.9 mph4.7 kmh 29.95 in1014.2 mb 0.04 in1.0 mm 0.06 in1.5 mm 0.12 in3.0 mm
12:21 PM 40.8°F4.9°C 39.7°F4.3°C 96% Calm Calm 0.9 mph1.4 kmh 29.94 in1013.9 mb 0.04 in1.0 mm 0.00 in0.0 mm 0.13 in3.3 mm
12:31 PM 40.8°F4.9°C 39.7°F4.3°C 96% Calm Calm 1.0 mph1.6 kmh 29.94 in1013.9 mb 0.05 in1.3 mm 0.06 in1.5 mm 0.14 in3.6 mm
12:41 PM 41.0°F5.0°C 39.9°F4.4°C 96% Calm Calm 0.9 mph1.4 kmh 29.93 in1013.5 mb 0.06 in1.5 mm 0.06 in1.5 mm 0.16 in4.1 mm
12:51 PM 41.2°F5.1°C 40.1°F4.5°C 96% Calm Calm 2.0 mph3.2 kmh 29.93 in1013.5 mb 0.07 in1.8 mm 0.06 in1.5 mm 0.18 in4.6 mm
01:01 PM 41.4°F5.2°C 40.3°F4.6°C 96% Calm Calm 0.9 mph1.4 kmh 29.93 in1013.5 mb 0.08 in2.0 mm 0.01 in0.3 mm 0.19 in4.8 mm
01:11 PM 41.5°F5.3°C 40.5°F4.7°C 96% Calm Calm -- 29.93 in1013.5 mb 0.08 in2.0 mm 0.00 in0.0 mm 0.20 in5.1 mm
01:21 PM 41.5°F5.3°C 40.5°F4.7°C 96% Calm Calm 2.0 mph3.2 kmh 29.93 in1013.5 mb 0.08 in2.0 mm 0.00 in0.0 mm 0.21 in5.3 mm
01:31 PM 41.7°F5.4°C 40.6°F4.8°C 96% Calm Calm -- 29.93 in1013.5 mb 0.07 in1.8 mm 0.00 in0.0 mm 0.21 in5.3 mm
01:41 PM 41.9°F5.5°C 40.8°F4.9°C 96% Calm Calm -- 29.93 in1013.5 mb 0.06 in1.5 mm 0.00 in0.0 mm 0.22 in5.6 mm
01:51 PM 42.4°F5.8°C 41.4°F5.2°C 96% Calm Calm 1.0 mph1.6 kmh 29.92 in1013.2 mb 0.04 in1.0 mm 0.00 in0.0 mm 0.22 in5.6 mm
02:01 PM 42.8°F6.0°C 41.7°F5.4°C 96% Calm Calm -- 29.92 in1013.2 mb 0.03 in0.8 mm 0.00 in0.0 mm 0.22 in5.6 mm
02:11 PM 43.0°F6.1°C 41.9°F5.5°C 96% Calm Calm -- 29.92 in1013.2 mb 0.02 in0.5 mm 0.00 in0.0 mm 0.22 in5.6 mm
02:21 PM 43.0°F6.1°C 41.9°F5.5°C 96% Calm Calm 3.0 mph4.8 kmh 29.92 in1013.2 mb 0.01 in0.3 mm 0.00 in0.0 mm 0.22 in5.6 mm
02:31 PM 42.8°F6.0°C 41.7°F5.4°C 96% Calm Calm 2.9 mph4.7 kmh 29.93 in1013.5 mb 0.01 in0.3 mm 0.00 in0.0 mm 0.22 in5.6 mm
02:41 PM 42.6°F5.9°C 41.4°F5.2°C 95% 0.9 mph W1.4 kmh W 4.9 mph7.9 kmh 29.93 in1013.5 mb 0.00 in0.0 mm 0.00 in0.0 mm 0.22 in5.6 mm
02:51 PM 42.4°F5.8°C 41.2°F5.1°C 95% 0.9 mph N1.4 kmh N 4.0 mph6.4 kmh 29.93 in1013.5 mb 0.00 in0.0 mm 0.00 in0.0 mm 0.22 in5.6 mm
03:01 PM 42.3°F5.7°C 41.0°F5.0°C 95% 0.9 mph W1.4 kmh W 5.0 mph8.0 kmh 29.94 in1013.9 mb 0.00 in0.0 mm 0.00 in0.0 mm 0.22 in5.6 mm
03:11 PM 42.1°F5.6°C 40.8°F4.9°C 95% 0.9 mph WSW1.4 kmh WSW 4.0 mph6.4 kmh 29.94 in1013.9 mb 0.00 in0.0 mm 0.00 in0.0 mm 0.22 in5.6 mm
03:21 PM 41.9°F5.5°C 40.3°F4.6°C 94% 0.9 mph SSW1.4 kmh SSW 6.0 mph9.7 kmh 29.95 in1014.2 mb 0.00 in0.0 mm 0.00 in0.0 mm 0.22 in5.6 mm
03:31 PM 41.5°F5.3°C 39.7°F4.3°C 93% 2.0 mph WNW3.2 kmh WNW 9.0 mph14.5 kmh 29.95 in1014.2 mb 0.00 in0.0 mm 0.00 in0.0 mm 0.22 in5.6 mm
03:41 PM 41.2°F5.1°C 39.4°F4.1°C 93% 0.9 mph WNW1.4 kmh WNW 4.9 mph7.9 kmh 29.95 in1014.2 mb 0.00 in0.0 mm 0.00 in0.0 mm 0.22 in5.6 mm
03:51 PM 40.8°F4.9°C 38.7°F3.7°C 92% 0.9 mph W1.4 kmh W 6.9 mph11.1 kmh 29.95 in1014.2 mb 0.00 in0.0 mm 0.00 in0.0 mm 0.22 in5.6 mm
04:01 PM 40.5°F4.7°C 38.3°F3.5°C 92% 0.9 mph NW1.4 kmh NW 4.9 mph7.9 kmh 29.96 in1014.6 mb 0.00 in0.0 mm 0.00 in0.0 mm 0.22 in5.6 mm
04:11 PM 40.1°F4.5°C 37.9°F3.3°C 92% 0.9 mph NW1.4 kmh NW 7.0 mph11.3 kmh 29.96 in1014.6 mb 0.00 in0.0 mm 0.00 in0.0 mm 0.22 in5.6 mm
04:21 PM 39.6°F4.2°C 37.4°F3.0°C 92% Calm Calm 4.0 mph6.4 kmh 29.96 in1014.6 mb 0.00 in0.0 mm 0.00 in0.0 mm 0.22 in5.6 mm
04:31 PM 39.0°F3.9°C 36.9°F2.7°C 92% Calm Calm -- 29.96 in1014.6 mb 0.00 in0.0 mm 0.00 in0.0 mm 0.22 in5.6 mm
04:41 PM 38.5°F3.6°C 36.3°F2.4°C 92% Calm Calm 0.9 mph1.4 kmh 29.96 in1014.6 mb 0.00 in0.0 mm 0.00 in0.0 mm 0.22 in5.6 mm
04:51 PM 37.8°F3.2°C 36.0°F2.2°C 93% Calm Calm 0.9 mph1.4 kmh 29.97 in1014.9 mb 0.00 in0.0 mm 0.00 in0.0 mm 0.22 in5.6 mm
05:01 PM 37.2°F2.9°C 35.4°F1.9°C 93% Calm Calm 1.0 mph1.6 kmh 29.97 in1014.9 mb 0.00 in0.0 mm 0.00 in0.0 mm 0.22 in5.6 mm
05:11 PM 36.9°F2.7°C 35.2°F1.8°C 94% Calm Calm -- 29.97 in1014.9 mb 0.00 in0.0 mm 0.00 in0.0 mm 0.22 in5.6 mm
05:21 PM 36.7°F2.6°C 35.1°F1.7°C 94% Calm Calm -- 29.97 in1014.9 mb 0.00 in0.0 mm 0.00 in0.0 mm 0.22 in5.6 mm
05:31 PM 36.7°F2.6°C 35.1°F1.7°C 94% Calm Calm 0.9 mph1.4 kmh 29.97 in1014.9 mb 0.00 in0.0 mm 0.00 in0.0 mm 0.22 in5.6 mm
05:41 PM 36.3°F2.4°C 34.7°F1.5°C 94% Calm Calm -- 29.97 in1014.9 mb 0.00 in0.0 mm 0.00 in0.0 mm 0.22 in5.6 mm
05:51 PM 35.8°F2.1°C 34.2°F1.2°C 94% Calm Calm 1.0 mph1.6 kmh 29.97 in1014.9 mb 0.00 in0.0 mm 0.00 in0.0 mm 0.22 in5.6 mm
06:01 PM 35.2°F1.8°C 33.6°F0.9°C 94% Calm Calm -- 29.97 in1014.9 mb 0.00 in0.0 mm 0.00 in0.0 mm 0.22 in5.6 mm
06:11 PM 34.7°F1.5°C 33.1°F0.6°C 94% Calm Calm -- 29.97 in1014.9 mb 0.00 in0.0 mm 0.00 in0.0 mm 0.22 in5.6 mm
06:21 PM 34.5°F1.4°C 32.9°F0.5°C 94% Calm Calm -- 29.97 in1014.9 mb 0.00 in0.0 mm 0.00 in0.0 mm 0.22 in5.6 mm
06:31 PM 34.2°F1.2°C 32.5°F0.3°C 94% Calm Calm -- 29.97 in1014.9 mb 0.00 in0.0 mm 0.00 in0.0 mm 0.22 in5.6 mm
06:42 PM 34.3°F1.3°C 33.1°F0.6°C 95% Calm Calm -- 29.97 in1014.9 mb 0.00 in0.0 mm 0.00 in0.0 mm 0.22 in5.6 mm
06:52 PM 34.0°F1.1°C 32.7°F0.4°C 95% Calm Calm -- 29.97 in1014.9 mb 0.00 in0.0 mm 0.00 in0.0 mm 0.22 in5.6 mm
07:02 PM 33.6°F0.9°C 32.4°F0.2°C 95% Calm Calm -- 29.96 in1014.6 mb 0.00 in0.0 mm 0.00 in0.0 mm 0.22 in5.6 mm
07:12 PM 33.3°F0.7°C 32.0°F0.0°C 95% Calm Calm -- 29.96 in1014.6 mb 0.00 in0.0 mm 0.00 in0.0 mm 0.22 in5.6 mm
07:22 PM 33.1°F0.6°C 31.8°F-0.1°C 95% Calm Calm -- 29.97 in1014.9 mb 0.00 in0.0 mm 0.00 in0.0 mm 0.22 in5.6 mm
07:32 PM 33.1°F0.6°C 31.8°F-0.1°C 95% Calm Calm -- 29.97 in1014.9 mb 0.00 in0.0 mm 0.00 in0.0 mm 0.22 in5.6 mm
07:42 PM 33.4°F0.8°C 32.4°F0.2°C 96% Calm Calm 0.9 mph1.4 kmh 29.97 in1014.9 mb 0.00 in0.0 mm 0.00 in0.0 mm 0.22 in5.6 mm
07:52 PM 34.0°F1.1°C 32.9°F0.5°C 96% Calm Calm 0.9 mph1.4 kmh 29.98 in1015.2 mb 0.00 in0.0 mm 0.00 in0.0 mm 0.22 in5.6 mm
08:02 PM 34.0°F1.1°C 32.9°F0.5°C 96% Calm Calm -- 29.98 in1015.2 mb 0.00 in0.0 mm 0.00 in0.0 mm 0.22 in5.6 mm
08:12 PM 34.5°F1.4°C 33.4°F0.8°C 96% Calm Calm 2.9 mph4.7 kmh 29.98 in1015.2 mb 0.00 in0.0 mm 0.00 in0.0 mm 0.22 in5.6 mm
08:22 PM 34.9°F1.6°C 33.8°F1.0°C 96% Calm Calm 2.0 mph3.2 kmh 29.98 in1015.2 mb 0.00 in0.0 mm 0.00 in0.0 mm 0.22 in5.6 mm
08:32 PM 35.2°F1.8°C 34.2°F1.2°C 96% Calm Calm 4.0 mph6.4 kmh 29.98 in1015.2 mb 0.00 in0.0 mm 0.00 in0.0 mm 0.22 in5.6 mm
08:42 PM 36.0°F2.2°C 34.7°F1.5°C 95% 0.9 mph SW1.4 kmh SW 8.1 mph13.0 kmh 29.98 in1015.2 mb 0.00 in0.0 mm 0.00 in0.0 mm 0.22 in5.6 mm
08:52 PM 36.1°F2.3°C 34.5°F1.4°C 94% 0.9 mph WSW1.4 kmh WSW 4.0 mph6.4 kmh 29.98 in1015.2 mb 0.00 in0.0 mm 0.00 in0.0 mm 0.22 in5.6 mm
09:02 PM 36.3°F2.4°C 34.7°F1.5°C 94% Calm Calm 5.0 mph8.0 kmh 29.99 in1015.6 mb 0.00 in0.0 mm 0.00 in0.0 mm 0.22 in5.6 mm
09:12 PM 36.7°F2.6°C 34.5°F1.4°C 92% 0.9 mph SSW1.4 kmh SSW 6.0 mph9.7 kmh 29.99 in1015.6 mb 0.00 in0.0 mm 0.00 in0.0 mm 0.22 in5.6 mm
09:22 PM 36.7°F2.6°C 34.5°F1.4°C 92% 0.9 mph S1.4 kmh S 4.0 mph6.4 kmh 29.99 in1015.6 mb 0.00 in0.0 mm 0.00 in0.0 mm 0.22 in5.6 mm
09:32 PM 36.7°F2.6°C 34.3°F1.3°C 91% 0.9 mph WNW1.4 kmh WNW 7.0 mph11.3 kmh 30.00 in1015.9 mb 0.00 in0.0 mm 0.00 in0.0 mm 0.22 in5.6 mm
09:42 PM 36.9°F2.7°C 34.2°F1.2°C 90% 0.9 mph WSW1.4 kmh WSW 6.0 mph9.7 kmh 30.00 in1015.9 mb 0.00 in0.0 mm 0.00 in0.0 mm 0.22 in5.6 mm
09:52 PM 36.7°F2.6°C 34.0°F1.1°C 90% 0.9 mph WSW1.4 kmh WSW 8.1 mph13.0 kmh 30.00 in1015.9 mb 0.00 in0.0 mm 0.00 in0.0 mm 0.22 in5.6 mm
10:02 PM 36.7°F2.6°C 34.0°F1.1°C 90% 0.9 mph NW1.4 kmh NW 4.9 mph7.9 kmh 30.00 in1015.9 mb 0.00 in0.0 mm 0.00 in0.0 mm 0.22 in5.6 mm
10:12 PM 36.7°F2.6°C 33.8°F1.0°C 89% 0.9 mph NW1.4 kmh NW 4.9 mph7.9 kmh 30.00 in1015.9 mb 0.00 in0.0 mm 0.00 in0.0 mm 0.22 in5.6 mm
10:22 PM 36.7°F2.6°C 33.8°F1.0°C 89% 0.9 mph WSW1.4 kmh WSW 4.0 mph6.4 kmh 30.01 in1016.3 mb 0.00 in0.0 mm 0.00 in0.0 mm 0.22 in5.6 mm
10:32 PM 36.7°F2.6°C 33.8°F1.0°C 89% 0.9 mph NNW1.4 kmh NNW 6.0 mph9.7 kmh 30.01 in1016.3 mb 0.00 in0.0 mm 0.00 in0.0 mm 0.22 in5.6 mm
10:42 PM 36.5°F2.5°C 33.6°F0.9°C 89% 0.9 mph W1.4 kmh W 4.9 mph7.9 kmh 30.01 in1016.3 mb 0.00 in0.0 mm 0.00 in0.0 mm 0.22 in5.6 mm
10:52 PM 36.5°F2.5°C 33.3°F0.7°C 88% 0.9 mph SW1.4 kmh SW 8.1 mph13.0 kmh 30.01 in1016.3 mb 0.00 in0.0 mm 0.00 in0.0 mm 0.22 in5.6 mm
11:02 PM 36.0°F2.2°C 33.1°F0.6°C 89% Calm Calm 2.9 mph4.7 kmh 30.01 in1016.3 mb 0.00 in0.0 mm 0.00 in0.0 mm 0.22 in5.6 mm
11:12 PM 35.6°F2.0°C 32.7°F0.4°C 89% Calm Calm 0.9 mph1.4 kmh 30.01 in1016.3 mb 0.00 in0.0 mm 0.00 in0.0 mm 0.22 in5.6 mm
11:22 PM 35.2°F1.8°C 32.5°F0.3°C 90% Calm Calm 0.9 mph1.4 kmh 30.01 in1016.3 mb 0.00 in0.0 mm 0.00 in0.0 mm 0.22 in5.6 mm
11:32 PM 34.9°F1.6°C 32.2°F0.1°C 90% Calm Calm 0.9 mph1.4 kmh 30.01 in1016.3 mb 0.00 in0.0 mm 0.00 in0.0 mm 0.22 in5.6 mm
11:42 PM 34.7°F1.5°C 32.4°F0.2°C 91% Calm Calm 0.9 mph1.4 kmh 30.01 in1016.3 mb 0.00 in0.0 mm 0.00 in0.0 mm 0.22 in5.6 mm
11:52 PM 34.3°F1.3°C 32.0°F0.0°C 91% Calm Calm -- 30.01 in1016.3 mb 0.00 in0.0 mm 0.00 in0.0 mm 0.22 in5.6 mm